createdAt,value
2022-11-21T00:01:00.040Z,0.80
2022-11-21T00:03:27.159Z,0.93
2022-11-21T00:05:53.927Z,0.82
2022-11-21T00:08:21.661Z,0.70
2022-11-21T00:10:49.177Z,0.70
2022-11-21T00:13:18.889Z,0.70
2022-11-21T00:15:46.472Z,0.90
2022-11-21T00:18:14.012Z,0.88
2022-11-21T00:20:41.744Z,0.80
2022-11-21T00:23:09.279Z,0.82
2022-11-21T00:25:36.691Z,0.80
2022-11-21T00:28:04.254Z,0.90
2022-11-21T00:30:31.178Z,0.70
2022-11-21T00:33:01.238Z,0.95
2022-11-21T00:35:28.399Z,0.60
2022-11-21T00:37:55.115Z,0.70
2022-11-21T00:40:21.939Z,0.87
2022-11-21T00:42:48.604Z,0.90
2022-11-21T00:45:19.641Z,0.65
2022-11-21T00:47:49.635Z,0.70
2022-11-21T00:50:16.438Z,0.70
2022-11-21T00:52:43.293Z,0.70
2022-11-21T00:55:10.121Z,0.50
2022-11-21T00:57:36.921Z,0.60
2022-11-21T01:00:04.686Z,0.70
2022-11-21T01:02:32.894Z,0.70
2022-11-21T01:04:59.564Z,0.70
2022-11-21T01:07:26.589Z,0.68
2022-11-21T01:09:53.369Z,0.70
2022-11-21T01:12:20.157Z,0.80
2022-11-21T01:14:46.934Z,0.68
2022-11-21T01:17:13.686Z,0.60
2022-11-21T01:19:40.394Z,0.60
2022-11-21T01:22:07.173Z,0.70
2022-11-21T01:24:33.995Z,0.60
2022-11-21T01:27:00.818Z,0.60
2022-11-21T01:29:28.114Z,0.53
2022-11-21T01:31:54.839Z,0.52
2022-11-21T01:34:22.591Z,0.60
2022-11-21T01:36:49.378Z,0.50
2022-11-21T01:39:16.215Z,0.50
2022-11-21T01:41:45.835Z,0.60
2022-11-21T01:44:22.600Z,0.60
2022-11-21T01:46:50.745Z,0.68
2022-11-21T01:49:19.769Z,0.70
2022-11-21T01:52:16.784Z,1.00
2022-11-21T01:54:55.493Z,0.70
2022-11-21T01:57:42.475Z,0.70
2022-11-21T02:00:15.975Z,0.50
2022-11-21T02:02:56.819Z,0.90
2022-11-21T02:05:27.997Z,0.75
2022-11-21T02:08:02.451Z,0.80
2022-11-21T02:10:29.239Z,0.70
2022-11-21T02:12:58.425Z,0.70
2022-11-21T02:15:28.258Z,0.60
2022-11-21T02:17:55.592Z,0.55
2022-11-21T02:20:28.074Z,0.75
2022-11-21T02:23:17.090Z,0.55
2022-11-21T02:25:43.968Z,0.82
2022-11-21T02:28:17.482Z,0.65
2022-11-21T02:30:44.833Z,0.60
2022-11-21T02:33:12.870Z,0.57
2022-11-21T02:35:40.315Z,0.60
2022-11-21T02:38:20.813Z,0.60
2022-11-21T02:41:12.034Z,0.50
2022-11-21T02:43:45.236Z,0.67
2022-11-21T02:46:12.053Z,0.70
2022-11-21T02:48:39.213Z,0.77
2022-11-21T02:51:06.086Z,0.55
2022-11-21T02:53:32.929Z,0.50
2022-11-21T02:55:59.705Z,0.50
2022-11-21T02:58:27.262Z,0.60
2022-11-21T03:00:55.222Z,0.60
2022-11-21T03:03:22.525Z,0.60
2022-11-21T03:05:49.359Z,0.60
2022-11-21T03:08:16.221Z,0.57
2022-11-21T03:10:42.875Z,0.60
2022-11-21T03:13:09.663Z,0.45
2022-11-21T03:15:36.435Z,0.50
2022-11-21T03:18:04.017Z,0.60
2022-11-21T03:20:32.199Z,0.50
2022-11-21T03:22:59.071Z,0.60
2022-11-21T03:25:25.914Z,0.60
2022-11-21T03:27:53.949Z,0.57
2022-11-21T03:30:22.376Z,0.80
2022-11-21T03:32:49.305Z,0.52
2022-11-21T03:35:16.852Z,0.60
2022-11-21T03:37:43.628Z,0.73
2022-11-21T03:40:10.958Z,0.60
2022-11-21T03:42:37.697Z,0.32
2022-11-21T03:45:04.966Z,0.60
2022-11-21T03:47:31.860Z,0.60
2022-11-21T03:49:58.632Z,0.55
2022-11-21T03:52:25.442Z,0.60
2022-11-21T03:54:52.134Z,0.70
2022-11-21T03:57:18.998Z,0.50
2022-11-21T03:59:45.716Z,0.60
2022-11-21T04:02:12.542Z,0.60
2022-11-21T04:04:39.429Z,0.70
2022-11-21T04:07:06.307Z,0.50
2022-11-21T04:09:33.527Z,0.60
2022-11-21T04:12:04.966Z,0.47
2022-11-21T04:14:34.259Z,0.50
2022-11-21T04:17:01.028Z,0.50
2022-11-21T04:19:27.843Z,0.50
2022-11-21T04:21:54.683Z,0.60
2022-11-21T04:24:21.423Z,0.50
2022-11-21T04:26:48.134Z,0.60
2022-11-21T04:29:14.981Z,0.63
2022-11-21T04:31:41.815Z,0.60
2022-11-21T04:34:08.616Z,0.50
2022-11-21T04:36:35.451Z,0.70
2022-11-21T04:39:02.339Z,0.50
2022-11-21T04:41:29.214Z,0.50
2022-11-21T04:43:55.948Z,0.52
2022-11-21T04:46:22.758Z,0.40
2022-11-21T04:48:49.533Z,0.60
2022-11-21T04:51:16.247Z,0.60
2022-11-21T04:53:44.140Z,0.50
2022-11-21T04:56:11.260Z,0.60
2022-11-21T04:58:38.124Z,0.70
2022-11-21T05:01:09.038Z,0.70
2022-11-21T05:03:36.636Z,0.68
2022-11-21T05:06:03.904Z,0.70
2022-11-21T05:08:30.621Z,0.40
2022-11-21T05:11:16.196Z,0.70
2022-11-21T05:13:43.049Z,0.68
2022-11-21T05:16:09.818Z,0.63
2022-11-21T05:18:36.631Z,0.47
2022-11-21T05:21:03.776Z,0.60
2022-11-21T05:23:30.730Z,0.60
2022-11-21T05:25:57.672Z,0.60
2022-11-21T05:28:24.910Z,0.60
2022-11-21T05:30:51.715Z,0.60
2022-11-21T05:33:19.093Z,0.52
2022-11-21T05:35:46.009Z,0.50
2022-11-21T05:38:13.098Z,0.60
2022-11-21T05:40:39.987Z,0.60
2022-11-21T05:43:25.673Z,0.55
2022-11-21T05:45:53.294Z,0.60
2022-11-21T05:48:20.185Z,0.70
2022-11-21T05:50:50.305Z,0.63
2022-11-21T05:53:17.517Z,0.60
2022-11-21T05:55:44.898Z,0.68
2022-11-21T05:58:12.251Z,0.70
2022-11-21T06:00:39.320Z,0.65
2022-11-21T06:03:25.168Z,0.68
2022-11-21T06:05:51.982Z,0.60
2022-11-21T06:08:19.067Z,0.68
2022-11-21T06:10:46.092Z,0.65
2022-11-21T06:13:24.822Z,0.50
2022-11-21T06:15:58.986Z,0.73
2022-11-21T06:18:26.542Z,0.70
2022-11-21T06:20:53.265Z,0.60
2022-11-21T06:23:20.381Z,0.80
2022-11-21T06:25:47.258Z,0.70
2022-11-21T06:28:14.086Z,0.73
2022-11-21T06:30:40.874Z,0.65
2022-11-21T06:33:07.950Z,0.60
2022-11-21T06:35:38.632Z,0.65
2022-11-21T06:38:05.418Z,0.70
2022-11-21T06:40:32.151Z,0.70
2022-11-21T06:42:58.958Z,0.70
2022-11-21T06:45:25.950Z,0.70
2022-11-21T06:47:52.712Z,0.60
2022-11-21T06:50:19.602Z,0.70
2022-11-21T06:52:46.435Z,0.60
2022-11-21T06:55:13.730Z,0.60
2022-11-21T06:57:40.438Z,0.70
2022-11-21T07:00:07.951Z,1.00
2022-11-21T07:02:35.734Z,0.70
2022-11-21T07:05:02.627Z,0.63
2022-11-21T07:07:29.466Z,0.75
2022-11-21T07:09:57.342Z,0.70
2022-11-21T07:12:42.794Z,0.60
2022-11-21T07:15:10.394Z,0.70
2022-11-21T07:17:37.054Z,0.63
2022-11-21T07:20:04.211Z,0.50
2022-11-21T07:22:31.038Z,0.82
2022-11-21T07:24:57.970Z,0.65
2022-11-21T07:27:24.868Z,0.70
2022-11-21T07:29:51.825Z,0.70
2022-11-21T07:32:18.631Z,0.70
2022-11-21T07:34:45.403Z,0.70
2022-11-21T07:37:12.293Z,0.70
2022-11-21T07:39:39.120Z,0.60
2022-11-21T07:42:05.854Z,0.60
2022-11-21T07:44:32.680Z,0.80
2022-11-21T07:46:59.470Z,0.70
2022-11-21T07:49:26.618Z,0.80
2022-11-21T07:51:53.854Z,0.80
2022-11-21T07:54:20.843Z,0.80
2022-11-21T07:56:47.691Z,0.80
2022-11-21T07:59:14.476Z,0.93
2022-11-21T08:01:45.267Z,1.13
2022-11-21T08:04:13.450Z,1.10
2022-11-21T08:06:40.195Z,1.15
2022-11-21T08:09:06.935Z,1.30
2022-11-21T08:11:36.590Z,1.37
2022-11-21T08:14:03.621Z,1.10
2022-11-21T08:16:32.852Z,1.10
2022-11-21T08:19:00.086Z,1.08
2022-11-21T08:21:27.199Z,1.40
2022-11-21T08:23:54.634Z,0.87
2022-11-21T08:26:21.571Z,1.10
2022-11-21T08:28:48.340Z,1.20
2022-11-21T08:31:15.155Z,1.08
2022-11-21T08:33:42.022Z,1.17
2022-11-21T08:36:09.194Z,1.27
2022-11-21T08:38:36.927Z,1.02
2022-11-21T08:41:22.428Z,1.02
2022-11-21T08:43:49.242Z,1.20
2022-11-21T08:46:16.795Z,1.20
2022-11-21T08:48:43.581Z,1.20
2022-11-21T08:51:10.285Z,1.10
2022-11-21T08:53:37.107Z,1.52
2022-11-21T08:56:04.669Z,1.23
2022-11-21T08:58:31.730Z,1.10
2022-11-21T09:01:00.271Z,1.20
2022-11-21T09:03:31.099Z,1.40
2022-11-21T09:05:59.783Z,1.33
2022-11-21T09:08:26.879Z,1.38
2022-11-21T09:10:53.617Z,1.50
2022-11-21T09:13:20.497Z,1.60
2022-11-21T09:16:05.762Z,1.50
2022-11-21T09:18:32.603Z,1.10
2022-11-21T09:20:59.419Z,1.17
2022-11-21T09:23:26.508Z,1.20
2022-11-21T09:25:53.409Z,1.20
2022-11-21T09:28:20.272Z,1.40
2022-11-21T09:30:47.130Z,1.27
2022-11-21T09:33:16.959Z,1.50
2022-11-21T09:35:44.534Z,1.30
2022-11-21T09:38:11.585Z,1.20
2022-11-21T09:40:43.697Z,1.50
2022-11-21T09:43:19.849Z,1.20
2022-11-21T09:46:03.073Z,1.58
2022-11-21T09:48:53.874Z,1.33
2022-11-21T09:51:22.608Z,1.60
2022-11-21T09:53:59.723Z,1.63
2022-11-21T09:56:28.946Z,1.67
2022-11-21T09:59:29.694Z,1.40
2022-11-21T10:01:57.329Z,1.50
2022-11-21T10:04:25.880Z,1.60
2022-11-21T10:07:17.286Z,1.80
2022-11-21T10:09:55.761Z,1.80
2022-11-21T10:12:37.441Z,1.50
2022-11-21T10:15:19.333Z,1.65
2022-11-21T10:18:01.571Z,1.88
2022-11-21T10:20:50.917Z,1.90
2022-11-21T10:23:42.368Z,1.50
2022-11-21T10:26:30.803Z,1.70
2022-11-21T10:29:04.751Z,1.70
2022-11-21T10:31:36.563Z,1.73
2022-11-21T10:34:12.893Z,1.50
2022-11-21T10:36:48.446Z,1.73
2022-11-21T10:39:37.261Z,1.60
2022-11-21T10:42:10.186Z,1.87
2022-11-21T10:44:55.546Z,1.75
2022-11-21T10:47:27.922Z,1.55
2022-11-21T10:50:18.182Z,1.50
2022-11-21T10:53:28.561Z,1.70
2022-11-21T10:56:05.813Z,1.80
2022-11-21T10:58:53.959Z,1.52
2022-11-21T11:01:35.715Z,1.70
2022-11-21T11:04:33.513Z,1.55
2022-11-21T11:07:28.474Z,1.70
2022-11-21T11:10:27.691Z,1.55
2022-11-21T11:13:44.430Z,1.60
2022-11-21T11:16:05.149Z,1.60
2022-11-21T11:18:35.247Z,1.85
2022-11-21T11:21:46.350Z,1.58
2022-11-21T11:24:13.094Z,1.80
2022-11-21T11:26:48.178Z,1.70
2022-11-21T11:29:23.320Z,1.70
2022-11-21T11:31:58.907Z,1.73
2022-11-21T11:34:47.659Z,1.60
2022-11-21T11:37:41.020Z,1.80
2022-11-21T11:40:21.486Z,2.10
2022-11-21T11:43:12.676Z,1.50
2022-11-21T11:46:11.079Z,1.55
2022-11-21T11:49:11.053Z,1.98
2022-11-21T11:51:32.898Z,1.88
2022-11-21T11:54:07.337Z,1.55
2022-11-21T11:56:38.251Z,1.80
2022-11-21T11:59:42.477Z,1.97
2022-11-21T12:02:23.542Z,1.90
2022-11-21T12:05:11.506Z,1.85
2022-11-21T12:11:15.635Z,1.83
2022-11-21T12:13:43.992Z,1.80
2022-11-21T12:16:14.349Z,1.60
2022-11-21T12:19:10.671Z,1.50
2022-11-21T12:21:37.652Z,1.85
2022-11-21T12:24:05.288Z,1.63
2022-11-21T12:26:57.993Z,1.60
2022-11-21T12:29:43.690Z,1.70
2022-11-21T12:32:25.469Z,1.70
2022-11-21T12:34:58.475Z,1.80
2022-11-21T12:42:06.193Z,2.42
2022-11-21T12:44:54.421Z,2.10
2022-11-21T12:48:04.700Z,2.60
2022-11-21T12:51:24.947Z,2.17
2022-11-21T12:54:30.665Z,2.07
2022-11-21T12:57:16.368Z,1.95
2022-11-21T13:00:21.310Z,1.70
2022-11-21T13:03:26.749Z,1.70
2022-11-21T13:05:57.140Z,2.10
2022-11-21T13:08:31.336Z,1.77
2022-11-21T13:11:35.196Z,1.70
2022-11-21T13:14:15.852Z,1.45
2022-11-21T13:16:49.641Z,1.98
2022-11-21T13:19:28.064Z,1.97
2022-11-21T13:21:55.113Z,1.70
2022-11-21T13:24:50.022Z,2.00
2022-11-21T13:27:40.499Z,1.63
2022-11-21T13:30:11.338Z,1.50
2022-11-21T13:32:51.080Z,1.77
2022-11-21T13:35:20.977Z,1.80
2022-11-21T13:38:03.633Z,1.73
2022-11-21T13:40:30.513Z,2.03
2022-11-21T13:46:00.867Z,1.90
2022-11-21T13:48:31.228Z,1.93
2022-11-21T13:51:32.162Z,2.03
2022-11-21T13:54:14.008Z,2.13
2022-11-21T13:56:40.832Z,1.88
2022-11-21T13:59:51.358Z,1.70
2022-11-21T14:02:56.011Z,2.13
2022-11-21T14:05:48.276Z,6.55
2022-11-21T14:08:19.261Z,3.60
2022-11-21T14:10:52.396Z,3.05
2022-11-21T14:13:23.761Z,2.63
2022-11-21T14:16:11.031Z,2.63
2022-11-21T14:18:42.357Z,2.60
2022-11-21T14:21:12.832Z,2.35
2022-11-21T14:23:45.253Z,2.60
2022-11-21T14:26:14.824Z,2.30
2022-11-21T14:28:42.127Z,1.90
2022-11-21T14:31:12.269Z,1.90
2022-11-21T14:33:47.582Z,2.03
2022-11-21T14:36:18.126Z,2.08
2022-11-21T14:41:59.486Z,2.00
2022-11-21T14:44:30.069Z,1.92
2022-11-21T14:47:25.716Z,2.05
2022-11-21T14:49:57.003Z,1.92
2022-11-21T14:52:31.489Z,2.03
2022-11-21T14:57:55.496Z,1.67
2022-11-21T15:00:57.483Z,1.80
2022-11-21T15:03:21.750Z,1.92
2022-11-21T15:06:08.253Z,1.92
2022-11-21T15:09:18.297Z,1.83
2022-11-21T15:11:47.335Z,2.10
2022-11-21T15:19:28.923Z,1.80
2022-11-21T15:22:03.357Z,1.70
2022-11-21T15:24:42.338Z,1.45
2022-11-21T15:27:32.205Z,1.58
2022-11-21T15:30:10.209Z,1.67
2022-11-21T15:33:05.762Z,1.75
2022-11-21T15:35:55.639Z,1.67
2022-11-21T15:38:28.074Z,1.70
2022-11-21T15:41:10.662Z,1.77
2022-11-21T15:43:56.967Z,1.77
2022-11-21T15:46:42.105Z,1.52
2022-11-21T15:52:11.615Z,1.60
2022-11-21T15:54:40.346Z,1.73
2022-11-21T15:57:11.716Z,1.70
2022-11-21T15:59:40.130Z,1.38
2022-11-21T16:02:13.475Z,1.63
2022-11-21T16:04:43.599Z,1.60
2022-11-21T16:07:13.725Z,1.60
2022-11-21T16:09:42.071Z,1.90
2022-11-21T16:12:10.023Z,1.42
2022-11-21T16:14:38.833Z,1.63
2022-11-21T16:17:05.785Z,1.40
2022-11-21T16:19:33.144Z,1.25
2022-11-21T16:22:01.579Z,1.70
2022-11-21T16:24:29.846Z,1.30
2022-11-21T16:27:01.409Z,1.20
2022-11-21T16:29:31.144Z,1.45
2022-11-21T16:32:13.219Z,1.60
2022-11-21T16:34:47.068Z,1.80
2022-11-21T16:37:18.388Z,1.15
2022-11-21T16:39:51.886Z,1.55
2022-11-21T16:42:22.102Z,1.40
2022-11-21T16:44:52.428Z,1.33
2022-11-21T16:47:19.985Z,1.23
2022-11-21T16:49:50.465Z,1.30
2022-11-21T16:52:21.147Z,1.50
2022-11-21T16:54:55.559Z,1.20
2022-11-21T16:57:23.172Z,1.33
2022-11-21T16:59:55.306Z,1.40
2022-11-21T17:02:27.367Z,1.60
2022-11-21T17:04:54.809Z,1.42
2022-11-21T17:07:23.298Z,1.10
2022-11-21T17:09:54.451Z,1.50
2022-11-21T17:12:24.064Z,1.73
2022-11-21T17:14:51.541Z,1.30
2022-11-21T17:17:24.974Z,1.35
2022-11-21T17:19:56.453Z,1.52
2022-11-21T17:22:27.420Z,1.25
2022-11-21T17:24:56.028Z,1.48
2022-11-21T17:27:32.588Z,1.08
2022-11-21T17:30:03.182Z,1.50
2022-11-21T17:32:33.780Z,1.35
2022-11-21T17:42:57.446Z,1.58
2022-11-21T17:45:25.264Z,1.17
2022-11-21T17:48:03.473Z,1.25
2022-11-21T17:50:30.779Z,1.70
2022-11-21T17:53:02.269Z,1.10
2022-11-21T17:55:29.343Z,1.30
2022-11-21T17:57:57.404Z,1.42
2022-11-21T18:00:37.929Z,1.17
2022-11-21T18:03:47.674Z,1.10
2022-11-21T18:06:27.843Z,1.00
2022-11-21T18:09:01.572Z,1.13
2022-11-21T18:11:39.655Z,1.53
2022-11-21T18:14:12.744Z,1.20
2022-11-21T18:16:50.866Z,1.02
2022-11-21T18:19:22.927Z,1.10
2022-11-21T18:22:04.360Z,0.90
2022-11-21T18:24:31.852Z,1.17
2022-11-21T18:27:25.370Z,1.20
2022-11-21T18:29:53.950Z,1.10
2022-11-21T18:32:31.871Z,1.10
2022-11-21T18:35:04.308Z,1.10
2022-11-21T18:37:42.277Z,1.30
2022-11-21T18:40:13.800Z,0.98
2022-11-21T18:42:44.416Z,1.00
2022-11-21T18:49:02.136Z,1.05
2022-11-21T18:52:06.999Z,1.30
2022-11-21T18:55:12.365Z,0.93
2022-11-21T19:02:26.617Z,1.40
2022-11-21T19:04:57.293Z,1.13
2022-11-21T19:07:29.561Z,1.13
2022-11-21T19:10:27.903Z,0.95
2022-11-21T19:12:50.384Z,0.95
2022-11-21T19:15:23.345Z,0.80
2022-11-21T19:17:55.356Z,1.00
2022-11-21T19:20:32.893Z,0.90
2022-11-21T19:23:08.296Z,1.10
2022-11-21T19:25:47.513Z,0.83
2022-11-21T19:32:51.643Z,0.73
2022-11-21T19:36:41.444Z,1.00
2022-11-21T19:46:53.801Z,0.95
2022-11-21T19:49:27.014Z,1.50
2022-11-21T19:51:54.803Z,0.80
2022-11-21T19:54:46.501Z,0.70
2022-11-21T19:59:53.998Z,0.82
2022-11-21T20:02:23.741Z,0.70
2022-11-21T20:04:50.543Z,0.90
2022-11-21T20:07:17.337Z,0.73
2022-11-21T20:09:44.054Z,0.85
2022-11-21T20:12:10.933Z,0.77
2022-11-21T20:14:37.695Z,0.80
2022-11-21T20:17:04.490Z,0.73
2022-11-21T20:19:31.846Z,0.70
2022-11-21T20:21:59.051Z,0.83
2022-11-21T20:24:25.810Z,0.73
2022-11-21T20:26:53.400Z,0.70
2022-11-21T20:29:20.307Z,0.70
2022-11-21T20:31:48.220Z,0.80
2022-11-21T20:34:15.389Z,0.80
2022-11-21T20:36:43.231Z,0.80
2022-11-21T20:39:17.870Z,1.10
2022-11-21T20:41:46.015Z,0.80
2022-11-21T20:47:06.455Z,0.90
2022-11-21T20:49:33.685Z,0.93
2022-11-21T20:54:47.446Z,0.80
2022-11-21T20:57:15.524Z,0.73
2022-11-21T20:59:43.122Z,0.80
2022-11-21T21:02:14.200Z,0.93
2022-11-21T21:04:41.717Z,1.08
2022-11-21T21:07:08.490Z,0.90
2022-11-21T21:09:35.313Z,0.80
2022-11-21T21:12:02.059Z,1.08
2022-11-21T21:14:28.954Z,0.97
2022-11-21T21:16:55.705Z,0.90
2022-11-21T21:19:22.645Z,0.85
2022-11-21T21:21:49.589Z,0.98
2022-11-21T21:24:17.110Z,1.35
2022-11-21T21:26:47.028Z,1.00
2022-11-21T21:29:19.385Z,1.00
2022-11-21T21:31:51.717Z,1.00
2022-11-21T21:34:21.082Z,1.08
2022-11-21T21:36:48.446Z,0.90
2022-11-21T21:39:15.215Z,1.20
2022-11-21T21:41:45.767Z,1.10
2022-11-21T21:44:12.882Z,1.08
2022-11-21T21:46:39.955Z,1.00
2022-11-21T21:49:06.720Z,1.10
2022-11-21T21:51:33.601Z,1.00
2022-11-21T21:54:00.415Z,0.80
2022-11-21T21:56:28.770Z,1.20
2022-11-21T21:58:58.560Z,1.00
2022-11-21T22:01:30.227Z,1.00
2022-11-21T22:03:59.447Z,1.10
2022-11-21T22:06:27.172Z,1.13
2022-11-21T22:08:55.569Z,0.80
2022-11-21T22:11:27.142Z,1.07
2022-11-21T22:14:05.740Z,1.30
2022-11-21T22:16:32.982Z,1.00
2022-11-21T22:18:59.924Z,0.80
2022-11-21T22:21:32.795Z,0.85
2022-11-21T22:26:48.319Z,1.00
2022-11-21T22:29:15.056Z,0.90
2022-11-21T22:31:41.902Z,0.93
2022-11-21T22:34:12.243Z,1.08
2022-11-21T22:36:38.996Z,0.90
2022-11-21T22:39:05.795Z,0.88
2022-11-21T22:41:32.567Z,1.10
2022-11-21T22:43:59.899Z,0.98
2022-11-21T22:46:27.935Z,1.05
2022-11-21T22:48:55.171Z,0.82
2022-11-21T22:51:27.194Z,1.00
2022-11-21T22:53:54.010Z,0.90
2022-11-21T22:56:23.119Z,1.05
2022-11-21T22:58:50.664Z,1.02
2022-11-21T23:01:22.536Z,1.02
2022-11-21T23:03:49.673Z,1.08
2022-11-21T23:06:22.160Z,1.00
2022-11-21T23:08:49.580Z,0.85
2022-11-21T23:11:22.687Z,1.48
2022-11-21T23:13:50.201Z,1.33
2022-11-21T23:16:17.937Z,0.95
2022-11-21T23:18:45.079Z,1.23
2022-11-21T23:21:12.897Z,1.15
2022-11-21T23:23:40.296Z,1.40
2022-11-21T23:26:07.276Z,1.23
2022-11-21T23:28:34.219Z,1.08
2022-11-21T23:31:01.156Z,1.10
2022-11-21T23:33:27.997Z,1.10
2022-11-21T23:35:54.924Z,1.20
2022-11-21T23:38:21.985Z,1.27
2022-11-21T23:40:49.562Z,1.20
2022-11-21T23:43:17.537Z,1.02
2022-11-21T23:45:45.405Z,0.90
2022-11-21T23:48:12.403Z,1.13
2022-11-21T23:50:39.262Z,1.13
2022-11-21T23:53:06.147Z,0.95
2022-11-21T23:55:32.940Z,1.10
2022-11-21T23:57:59.649Z,0.90
